< Typhoon 201710 2017 Season Typhoon 201712 >
Typhoon 201711 (NALGAE)
General InformationTrack Information on Google MapsDetailed Wind InformationForecast History on Google MapsAccess Analytics MapList of All Images || NewsDisaster Info.WeblogTrackbackTyphoon FrontTwiphoonTyphoon Now!Typhoon ImaginationJMA Disaster Info. XMLResourceGoogle EarthGE AnimationAtom FeedGeoJSON
Detalied Best Track (Time Zone = UTC)
Year Month Day Hour Lat. Long. Pressure (hPa) Wind (kt) Class Image Chart
2017 7 31 06 26.3 158.3 1006 0 2 Image Chart
2017 7 31 12 26.5 159.5 1006 0 2 Image Chart
2017 7 31 18 26.5 160.8 1006 0 2 Image Chart
2017 8 1 00 26.4 162.3 1006 0 2 Image Chart
2017 8 1 06 26.2 163.1 1004 0 2 Image Chart
2017 8 1 12 26.0 163.9 1004 0 2 Image Chart
2017 8 1 18 25.7 164.6 1000 0 2 Image Chart
2017 8 2 00 25.6 165.4 998 35 3 Image Chart
2017 8 2 06 25.8 165.4 996 40 3 Image Chart
2017 8 2 12 26.1 165.2 996 40 3 Image Chart
2017 8 2 18 26.4 165.0 992 40 3 Image Chart
2017 8 3 00 26.7 164.8 992 40 3 Image Chart
2017 8 3 06 27.3 164.3 992 40 3 Image Chart
2017 8 3 12 27.7 163.9 992 40 3 Image Chart
2017 8 3 18 28.0 163.4 992 40 3 Image Chart
2017 8 4 00 28.4 163.0 992 40 3 Image Chart
2017 8 4 06 29.0 162.9 992 40 3 Image Chart
2017 8 4 12 29.7 162.8 992 40 3 Image Chart
2017 8 4 18 30.7 162.6 992 40 3 Image Chart
2017 8 5 00 32.0 162.5 992 40 3 Image Chart
2017 8 5 06 34.2 162.1 990 45 3 Image Chart
2017 8 5 12 36.2 161.2 990 45 3 Image Chart
2017 8 5 18 38.1 160.2 990 0 6 Image Chart
2017 8 6 00 40.0 159.0 990 0 6 Image Chart
2017 8 6 06 41.6 158.3 990 0 6 Image Chart
2017 8 6 12 43.1 157.4 992 0 6 Image Chart
2017 8 6 18 44.5 156.1 994 0 6 Image Chart
2017 8 7 00 45.3 155.2 994 0 6 Image Chart
2017 8 7 06 45.7 154.8 996 0 6 Image Chart
2017 8 7 12 45.9 154.7 998 0 6 Image Chart
2017 8 7 18 46.1 154.7 998 0 6 Image Chart
2017 8 8 00 46.6 154.6 998 0 6 Image Chart
2017 8 8 06 46.5 154.2 1000 0 6 Image Chart
2017 8 8 12 46.4 153.9 1000 0 6 Image Chart
2017 8 8 18 46.0 154.6 1000 0 6 Image Chart
2017 8 9 00 45.6 153.0 1002 0 6 Image Chart
2017 8 9 06 45.2 151.3 1002 0 6 Image Chart
Japan Meteorological Agency Best Track Data | Correction Date : 2017-09-28
< Typhoon 201710 2017 Season Typhoon 201712 >

Help